createdAt,value
2023-03-26T00:00:15.744Z,6.8
2023-03-26T00:01:15.754Z,6.7
2023-03-26T00:02:15.770Z,6.8
2023-03-26T00:03:15.728Z,6.7
2023-03-26T00:04:15.701Z,6.7
2023-03-26T00:05:15.637Z,6.7
2023-03-26T00:06:15.660Z,6.7
2023-03-26T00:07:15.769Z,6.7
2023-03-26T00:08:15.610Z,6.7
2023-03-26T00:09:15.679Z,6.7
2023-03-26T00:10:15.618Z,6.7
2023-03-26T00:11:15.650Z,6.7
2023-03-26T00:12:15.681Z,6.7
2023-03-26T00:13:15.707Z,6.7
2023-03-26T00:14:15.673Z,6.7
2023-03-26T00:15:15.633Z,6.7
2023-03-26T00:16:16.908Z,6.6
2023-03-26T00:17:15.611Z,6.6
2023-03-26T00:18:15.709Z,6.6
2023-03-26T00:19:18.559Z,6.6
2023-03-26T00:20:15.689Z,6.6
2023-03-26T00:21:15.610Z,6.6
2023-03-26T00:22:15.606Z,6.6
2023-03-26T00:23:15.663Z,6.6
2023-03-26T00:24:15.607Z,6.6
2023-03-26T00:25:15.673Z,6.6
2023-03-26T00:26:15.622Z,6.6
2023-03-26T00:27:15.623Z,6.6
2023-03-26T00:28:15.634Z,6.6
2023-03-26T00:29:15.712Z,6.7
2023-03-26T00:30:15.587Z,6.7
2023-03-26T00:31:15.647Z,6.7
2023-03-26T00:32:15.731Z,6.7
2023-03-26T00:33:15.594Z,6.7
2023-03-26T00:34:15.895Z,6.7
2023-03-26T00:35:15.604Z,6.7
2023-03-26T00:36:15.682Z,6.7
2023-03-26T00:37:15.778Z,6.6
2023-03-26T00:38:15.591Z,6.6
2023-03-26T00:39:15.605Z,6.6
2023-03-26T00:40:15.694Z,6.6
2023-03-26T00:41:15.618Z,6.5
2023-03-26T00:42:15.604Z,6.5
2023-03-26T00:43:16.798Z,6.5
2023-03-26T00:44:15.542Z,6.4
2023-03-26T00:45:15.668Z,6.4
2023-03-26T00:46:15.684Z,6.4
2023-03-26T00:47:15.583Z,6.4
2023-03-26T00:48:15.785Z,6.3
2023-03-26T00:49:15.671Z,6.3
2023-03-26T00:50:15.710Z,6.3
2023-03-26T00:51:15.750Z,6.3
2023-03-26T00:52:15.687Z,6.3
2023-03-26T00:53:15.635Z,6.3
2023-03-26T00:54:15.598Z,6.3
2023-03-26T00:55:15.639Z,6.3
2023-03-26T00:56:15.590Z,6.2
2023-03-26T00:57:25.673Z,6.2
2023-03-26T00:58:15.600Z,6.2
2023-03-26T00:59:15.811Z,6.2
2023-03-26T01:00:15.582Z,6.2
2023-03-26T01:01:15.602Z,6.2
2023-03-26T01:02:15.625Z,6.2
2023-03-26T01:03:26.690Z,6.2
2023-03-26T01:04:15.715Z,6.2
2023-03-26T01:05:15.596Z,6.2
2023-03-26T01:06:15.542Z,6.2
2023-03-26T01:07:15.559Z,6.2
2023-03-26T01:08:15.615Z,6.2
2023-03-26T01:09:15.623Z,6.2
2023-03-26T01:10:16.720Z,6.2
2023-03-26T01:11:15.543Z,6.2
2023-03-26T01:12:15.588Z,6.2
2023-03-26T01:13:15.537Z,6.2
2023-03-26T01:14:15.641Z,6.2
2023-03-26T01:15:15.500Z,6.2
2023-03-26T01:16:15.573Z,6.2
2023-03-26T01:17:15.622Z,6.2
2023-03-26T01:18:15.530Z,6.2
2023-03-26T01:19:15.534Z,6.2
2023-03-26T01:20:15.541Z,6.2
2023-03-26T01:21:15.534Z,6.2
2023-03-26T01:22:15.617Z,6.1
2023-03-26T01:23:15.558Z,6.1
2023-03-26T01:24:15.561Z,6.1
2023-03-26T01:25:15.675Z,6.1
2023-03-26T01:26:15.515Z,6.1
2023-03-26T01:27:15.533Z,6.1
2023-03-26T01:28:15.627Z,6.1
2023-03-26T01:29:15.511Z,6.1
2023-03-26T01:30:15.506Z,6.1
2023-03-26T01:31:15.630Z,6.1
2023-03-26T01:32:15.543Z,6.0
2023-03-26T01:33:15.698Z,6.1
2023-03-26T01:34:15.464Z,6.0
2023-03-26T01:35:15.494Z,6.0
2023-03-26T01:36:15.561Z,6.0
2023-03-26T01:37:16.833Z,6.0
2023-03-26T01:38:15.510Z,6.0
2023-03-26T01:39:15.526Z,6.0
2023-03-26T01:40:15.494Z,6.0
2023-03-26T01:41:15.478Z,6.0
2023-03-26T01:42:15.634Z,6.0
2023-03-26T01:43:15.492Z,6.0
2023-03-26T01:44:15.559Z,6.0
2023-03-26T01:45:15.660Z,6.0
2023-03-26T01:46:15.528Z,5.9
2023-03-26T01:47:15.506Z,5.9
2023-03-26T01:48:15.554Z,5.9
2023-03-26T01:49:15.535Z,5.9
2023-03-26T01:50:15.501Z,5.9
2023-03-26T01:51:16.687Z,5.9
2023-03-26T01:52:15.624Z,5.9
2023-03-26T01:53:15.606Z,5.9
2023-03-26T01:54:15.466Z,5.8
2023-03-26T01:55:15.469Z,5.8
2023-03-26T01:56:15.486Z,5.8
2023-03-26T01:57:15.520Z,5.8
2023-03-26T01:58:15.498Z,5.8
2023-03-26T01:59:15.501Z,5.8
2023-03-26T02:00:15.428Z,5.8
2023-03-26T02:01:15.436Z,5.8
2023-03-26T02:02:15.624Z,5.8
2023-03-26T02:03:15.526Z,5.8
2023-03-26T02:04:15.669Z,5.8
2023-03-26T02:05:15.437Z,5.8
2023-03-26T02:06:15.443Z,5.8
2023-03-26T02:07:15.450Z,5.8
2023-03-26T02:08:15.521Z,5.8
2023-03-26T02:09:15.569Z,5.8
2023-03-26T02:10:15.480Z,5.8
2023-03-26T02:11:16.480Z,5.8
2023-03-26T02:12:15.420Z,5.8
2023-03-26T02:13:15.468Z,5.8
2023-03-26T02:14:15.444Z,5.8
2023-03-26T02:15:15.527Z,5.8
2023-03-26T02:16:15.454Z,5.8
2023-03-26T02:17:15.427Z,5.8
2023-03-26T02:18:15.420Z,5.8
2023-03-26T02:19:15.491Z,5.8
2023-03-26T02:20:15.436Z,5.8
2023-03-26T02:21:15.410Z,5.8
2023-03-26T02:22:15.415Z,5.8
2023-03-26T02:23:15.433Z,5.8
2023-03-26T02:24:15.464Z,5.8
2023-03-26T02:25:15.408Z,5.8
2023-03-26T02:26:15.578Z,5.8
2023-03-26T02:27:15.366Z,5.8
2023-03-26T02:28:15.402Z,5.9
2023-03-26T02:29:15.418Z,5.9
2023-03-26T02:30:15.398Z,5.9
2023-03-26T02:31:15.421Z,5.9
2023-03-26T02:32:15.384Z,5.9
2023-03-26T02:33:15.462Z,5.9
2023-03-26T02:34:15.395Z,5.9
2023-03-26T02:35:15.449Z,5.9
2023-03-26T02:36:15.499Z,5.9
2023-03-26T02:37:15.479Z,5.9
2023-03-26T02:38:15.400Z,5.9
2023-03-26T02:39:15.431Z,5.9
2023-03-26T02:40:15.352Z,5.9
2023-03-26T02:41:15.378Z,5.9
2023-03-26T02:42:15.438Z,5.9
2023-03-26T02:43:15.404Z,5.9
2023-03-26T02:44:15.375Z,5.9
2023-03-26T02:45:15.390Z,5.9
2023-03-26T02:46:15.377Z,5.9
2023-03-26T02:47:15.342Z,5.9
2023-03-26T02:51:15.378Z,5.9
2023-03-26T02:52:15.332Z,5.9
2023-03-26T02:53:15.356Z,5.9
2023-03-26T02:54:15.420Z,5.9
2023-03-26T02:55:15.476Z,5.9
2023-03-26T02:56:15.414Z,5.9
2023-03-26T02:57:15.385Z,5.9
2023-03-26T02:58:15.409Z,5.9
2023-03-26T02:59:15.458Z,5.9
2023-03-26T03:00:15.421Z,5.9
2023-03-26T03:01:15.558Z,5.9
2023-03-26T03:02:15.387Z,5.9
2023-03-26T03:03:15.384Z,5.9
2023-03-26T03:04:15.317Z,5.9
2023-03-26T03:05:15.379Z,5.9
2023-03-26T03:06:15.309Z,5.9
2023-03-26T03:07:15.301Z,5.9
2023-03-26T03:08:15.456Z,5.9
2023-03-26T03:09:15.411Z,5.9
2023-03-26T03:10:15.374Z,5.9
2023-03-26T03:11:15.327Z,5.9
2023-03-26T03:12:15.455Z,5.9
2023-03-26T03:13:15.384Z,5.9
2023-03-26T03:14:15.438Z,5.9
2023-03-26T03:17:15.352Z,5.9
2023-03-26T03:18:15.407Z,5.9
2023-03-26T03:19:15.291Z,5.9
2023-03-26T03:20:15.281Z,5.9
2023-03-26T03:21:15.325Z,5.9
2023-03-26T03:22:15.343Z,5.9
2023-03-26T03:23:15.477Z,5.9
2023-03-26T03:24:15.293Z,5.9
2023-03-26T03:25:15.282Z,5.9
2023-03-26T03:26:15.262Z,6.0
2023-03-26T03:27:15.288Z,6.0
2023-03-26T03:28:15.320Z,6.0
2023-03-26T03:29:15.290Z,6.0
2023-03-26T03:30:15.296Z,6.0
2023-03-26T03:31:15.344Z,6.0
2023-03-26T03:32:15.315Z,6.0
2023-03-26T03:33:15.318Z,6.0
2023-03-26T03:34:15.471Z,6.0
2023-03-26T03:35:15.339Z,6.0
2023-03-26T03:36:20.259Z,6.0
2023-03-26T03:37:15.263Z,5.9
2023-03-26T03:38:15.274Z,5.9
2023-03-26T03:39:15.295Z,5.9
2023-03-26T03:40:15.320Z,5.9
2023-03-26T03:41:15.339Z,5.9
2023-03-26T03:42:15.517Z,5.9
2023-03-26T03:43:15.431Z,5.9
2023-03-26T03:44:15.283Z,5.9
2023-03-26T03:45:15.492Z,5.9
2023-03-26T03:46:15.392Z,5.9
2023-03-26T03:47:15.252Z,5.9
2023-03-26T03:48:15.298Z,5.9
2023-03-26T03:49:15.341Z,5.9
2023-03-26T03:50:15.320Z,5.9
2023-03-26T03:51:15.305Z,5.9
2023-03-26T03:52:15.342Z,5.9
2023-03-26T03:53:15.221Z,5.8
2023-03-26T03:54:15.272Z,5.9
2023-03-26T03:55:15.338Z,5.8
2023-03-26T03:56:15.422Z,5.8
2023-03-26T03:57:15.266Z,5.8
2023-03-26T03:58:15.255Z,5.8
2023-03-26T03:59:15.363Z,5.8
2023-03-26T04:00:15.280Z,5.8
2023-03-26T04:01:15.319Z,5.8
2023-03-26T04:02:15.278Z,5.8
2023-03-26T04:03:15.281Z,5.8
2023-03-26T04:04:15.360Z,5.8
2023-03-26T04:05:15.344Z,5.8
2023-03-26T04:06:15.224Z,5.8
2023-03-26T04:07:15.399Z,5.8
2023-03-26T04:08:15.230Z,5.8
2023-03-26T04:09:15.262Z,5.8
2023-03-26T04:10:15.264Z,5.8
2023-03-26T04:11:15.216Z,5.8
2023-03-26T04:12:15.254Z,5.8
2023-03-26T04:13:15.274Z,5.8
2023-03-26T04:14:15.287Z,5.8
2023-03-26T04:15:15.283Z,5.8
2023-03-26T04:16:15.247Z,5.8
2023-03-26T04:17:15.236Z,5.8
2023-03-26T04:18:15.269Z,5.8
2023-03-26T04:19:15.315Z,5.8
2023-03-26T04:20:15.216Z,5.8
2023-03-26T04:21:15.196Z,5.8
2023-03-26T04:22:15.221Z,5.8
2023-03-26T04:23:15.170Z,5.8
2023-03-26T04:24:15.173Z,5.8
2023-03-26T04:25:15.184Z,5.8
2023-03-26T04:26:15.233Z,5.8
2023-03-26T04:27:15.169Z,5.8
2023-03-26T04:28:15.222Z,5.8
2023-03-26T04:29:15.173Z,5.8
2023-03-26T04:30:15.256Z,5.8
2023-03-26T04:31:15.303Z,5.8
2023-03-26T04:32:15.289Z,5.8
2023-03-26T04:33:15.211Z,5.8
2023-03-26T04:34:15.162Z,5.8
2023-03-26T04:35:15.251Z,5.8
2023-03-26T04:36:15.159Z,5.8
2023-03-26T04:37:15.233Z,5.8
2023-03-26T04:38:15.208Z,5.8
2023-03-26T04:39:15.180Z,5.8
2023-03-26T04:40:15.203Z,5.8
2023-03-26T04:41:15.314Z,5.8
2023-03-26T04:42:15.214Z,5.8
2023-03-26T04:43:16.349Z,5.8
2023-03-26T04:44:15.121Z,5.8
2023-03-26T04:45:15.147Z,5.8
2023-03-26T04:46:15.236Z,5.8
2023-03-26T04:47:15.162Z,5.8
2023-03-26T04:48:15.148Z,5.8
2023-03-26T04:49:15.254Z,5.8
2023-03-26T04:50:15.154Z,5.8
2023-03-26T04:51:15.163Z,5.8
2023-03-26T04:52:15.390Z,5.9
2023-03-26T04:53:15.146Z,5.9
2023-03-26T04:54:15.223Z,5.9
2023-03-26T04:55:15.185Z,5.9
2023-03-26T04:56:15.144Z,5.9
2023-03-26T04:57:15.194Z,5.9
2023-03-26T04:58:23.477Z,5.9
2023-03-26T04:59:15.161Z,5.9
2023-03-26T05:00:15.137Z,5.9
2023-03-26T05:01:15.189Z,5.9
2023-03-26T05:02:15.135Z,5.9
2023-03-26T05:03:15.346Z,5.9
2023-03-26T05:04:15.210Z,5.9
2023-03-26T05:05:15.114Z,5.9
2023-03-26T05:06:15.128Z,5.9
2023-03-26T05:07:15.135Z,5.9
2023-03-26T05:08:15.138Z,5.9
2023-03-26T05:09:15.116Z,5.9
2023-03-26T05:10:15.133Z,5.9
2023-03-26T05:11:15.130Z,5.9
2023-03-26T05:12:15.099Z,5.9
2023-03-26T05:13:15.233Z,5.9
2023-03-26T05:14:15.090Z,5.9
2023-03-26T05:15:15.113Z,5.9
2023-03-26T05:16:15.212Z,5.9
2023-03-26T05:17:15.069Z,5.9
2023-03-26T05:18:15.136Z,5.9
2023-03-26T05:19:15.201Z,5.9
2023-03-26T05:20:15.074Z,5.9
2023-03-26T05:21:15.148Z,5.9
2023-03-26T05:22:15.096Z,5.9
2023-03-26T05:23:15.106Z,5.9
2023-03-26T05:24:15.264Z,5.9
2023-03-26T05:25:15.116Z,5.9
2023-03-26T05:26:15.076Z,6.0
2023-03-26T05:27:15.038Z,6.0
2023-03-26T05:28:15.091Z,6.0
2023-03-26T05:29:19.305Z,6.0
2023-03-26T05:30:15.067Z,6.0
2023-03-26T05:31:15.083Z,6.0
2023-03-26T05:32:15.105Z,6.0
2023-03-26T05:33:15.153Z,6.0
2023-03-26T05:34:32.964Z,6.0
2023-03-26T05:35:15.150Z,6.0
2023-03-26T05:36:15.054Z,6.0
2023-03-26T05:37:15.135Z,6.0
2023-03-26T05:38:15.062Z,6.0
2023-03-26T05:39:15.071Z,6.0
2023-03-26T05:40:15.142Z,6.0
2023-03-26T05:41:15.076Z,6.0
2023-03-26T05:42:15.071Z,6.0
2023-03-26T05:43:15.063Z,6.0
2023-03-26T05:44:15.039Z,6.0
2023-03-26T05:45:15.130Z,6.1
2023-03-26T05:46:15.126Z,6.1
2023-03-26T05:47:15.179Z,6.1
2023-03-26T05:48:15.053Z,6.1
2023-03-26T05:49:15.126Z,6.1
2023-03-26T05:50:15.026Z,6.1
2023-03-26T05:51:15.094Z,6.1
2023-03-26T05:52:15.038Z,6.1
2023-03-26T05:53:15.144Z,6.1
2023-03-26T05:54:15.018Z,6.1
2023-03-26T05:55:15.017Z,6.1
2023-03-26T05:56:21.433Z,6.1
2023-03-26T05:57:15.187Z,6.2
2023-03-26T05:58:15.106Z,6.2
2023-03-26T05:59:15.040Z,6.2
2023-03-26T06:00:15.058Z,6.2
2023-03-26T06:01:15.030Z,6.2
2023-03-26T06:02:15.063Z,6.2
2023-03-26T06:03:15.202Z,6.2
2023-03-26T06:04:15.203Z,6.2
2023-03-26T06:05:14.981Z,6.3
2023-03-26T06:06:15.000Z,6.3
2023-03-26T06:07:15.182Z,6.3
2023-03-26T06:08:15.016Z,6.3
2023-03-26T06:09:25.514Z,6.3
2023-03-26T06:10:18.297Z,6.3
2023-03-26T06:11:15.013Z,6.3
2023-03-26T06:12:14.998Z,6.3
2023-03-26T06:13:15.048Z,6.3
2023-03-26T06:14:15.008Z,6.3
2023-03-26T06:15:14.976Z,6.3
2023-03-26T06:16:26.337Z,6.4
2023-03-26T06:17:14.996Z,6.4
2023-03-26T06:18:15.006Z,6.4
2023-03-26T06:19:15.070Z,6.4
2023-03-26T06:20:14.999Z,6.4
2023-03-26T06:21:15.016Z,6.4
2023-03-26T06:22:15.003Z,6.4
2023-03-26T06:23:15.052Z,6.4
2023-03-26T06:24:19.445Z,6.5
2023-03-26T06:25:14.952Z,6.5
2023-03-26T06:26:14.988Z,6.5
2023-03-26T06:27:14.964Z,6.5
2023-03-26T06:28:14.977Z,6.5
2023-03-26T06:29:15.008Z,6.5
2023-03-26T06:30:15.085Z,6.5
2023-03-26T06:31:16.206Z,6.6
2023-03-26T06:32:19.685Z,6.6
2023-03-26T06:33:15.013Z,6.6
2023-03-26T06:34:14.983Z,6.6
2023-03-26T06:35:14.990Z,6.6
2023-03-26T06:36:15.046Z,6.6
2023-03-26T06:37:14.952Z,6.7
2023-03-26T06:38:15.010Z,6.7
2023-03-26T06:39:15.009Z,6.7
2023-03-26T06:40:15.938Z,6.7
2023-03-26T06:41:14.980Z,6.7
2023-03-26T06:42:14.978Z,6.8
2023-03-26T06:43:14.973Z,6.8
2023-03-26T06:44:14.985Z,6.8
2023-03-26T06:45:14.977Z,6.8
2023-03-26T06:46:14.988Z,6.8
2023-03-26T06:47:14.962Z,6.8
2023-03-26T06:48:14.952Z,6.8
2023-03-26T06:49:14.928Z,6.8
2023-03-26T06:50:14.939Z,6.8
2023-03-26T06:51:14.951Z,6.8
2023-03-26T06:52:15.109Z,6.8
2023-03-26T06:53:14.935Z,6.8
2023-03-26T06:54:14.941Z,6.8
2023-03-26T06:55:14.980Z,6.9
2023-03-26T06:56:16.590Z,6.9
2023-03-26T06:57:14.936Z,6.9
2023-03-26T06:58:14.942Z,6.9
2023-03-26T06:59:14.934Z,6.9
2023-03-26T07:00:14.930Z,6.9
2023-03-26T07:01:14.978Z,6.9
2023-03-26T07:02:14.918Z,7.0
2023-03-26T07:03:15.130Z,7.0
2023-03-26T07:04:14.973Z,7.0
2023-03-26T07:05:14.924Z,7.0
2023-03-26T07:06:14.949Z,7.0
2023-03-26T07:07:14.902Z,7.0
2023-03-26T07:08:14.950Z,7.1
2023-03-26T07:09:14.916Z,7.1
2023-03-26T07:10:14.949Z,7.1
2023-03-26T07:11:14.934Z,7.1
2023-03-26T07:12:14.897Z,7.1
2023-03-26T07:13:14.919Z,7.1
2023-03-26T07:14:15.027Z,7.1
2023-03-26T07:15:14.947Z,7.1
2023-03-26T07:16:14.881Z,7.1
2023-03-26T07:17:14.934Z,7.1
2023-03-26T07:18:14.897Z,7.1
2023-03-26T07:19:14.922Z,7.1
2023-03-26T07:20:14.889Z,7.2
2023-03-26T07:21:14.874Z,7.2
2023-03-26T07:22:14.944Z,7.2
2023-03-26T07:23:14.878Z,7.2
2023-03-26T07:24:14.862Z,7.2
2023-03-26T07:25:14.955Z,7.2
2023-03-26T07:26:15.036Z,7.2
2023-03-26T07:27:14.952Z,7.2
2023-03-26T07:28:14.910Z,7.2
2023-03-26T07:29:14.917Z,7.2
2023-03-26T07:30:14.892Z,7.1
2023-03-26T07:31:14.880Z,7.1
2023-03-26T07:32:16.669Z,7.1
2023-03-26T07:33:14.847Z,7.1
2023-03-26T07:34:14.925Z,7.1
2023-03-26T07:35:14.930Z,7.1
2023-03-26T07:36:14.852Z,7.1
2023-03-26T07:37:14.898Z,7.1
2023-03-26T07:38:14.919Z,7.1
2023-03-26T07:39:14.939Z,7.1
2023-03-26T07:40:14.948Z,7.1
2023-03-26T07:41:14.853Z,7.1
2023-03-26T07:42:14.891Z,7.1
2023-03-26T07:43:14.882Z,7.1
2023-03-26T07:44:14.937Z,7.1
2023-03-26T07:45:14.974Z,7.1
2023-03-26T07:46:14.925Z,7.1
2023-03-26T07:47:15.018Z,7.1
2023-03-26T07:48:14.830Z,7.2
2023-03-26T07:49:14.805Z,7.2
2023-03-26T07:50:16.058Z,7.2
2023-03-26T07:51:34.994Z,7.2
2023-03-26T07:52:14.876Z,7.2
2023-03-26T07:53:14.913Z,7.2
2023-03-26T07:54:14.805Z,7.2
2023-03-26T07:55:14.863Z,7.3
2023-03-26T07:56:14.873Z,7.3
2023-03-26T07:57:14.928Z,7.3
2023-03-26T07:58:15.274Z,7.3
2023-03-26T07:59:14.812Z,7.4
2023-03-26T08:00:14.834Z,7.4
2023-03-26T08:01:14.830Z,7.5
2023-03-26T08:02:15.155Z,7.5
2023-03-26T08:03:15.097Z,7.5
2023-03-26T08:04:24.047Z,7.6
2023-03-26T08:05:14.877Z,7.6
2023-03-26T08:06:14.835Z,7.6
2023-03-26T08:07:16.569Z,7.6
2023-03-26T08:08:15.096Z,7.7
2023-03-26T08:09:14.836Z,7.7
2023-03-26T08:10:14.869Z,7.8
2023-03-26T08:11:28.815Z,7.8
2023-03-26T08:12:14.763Z,7.8
2023-03-26T08:13:14.801Z,7.9
2023-03-26T08:14:14.950Z,7.9
2023-03-26T08:15:14.944Z,8.0
2023-03-26T08:16:14.924Z,8.1
2023-03-26T08:17:14.847Z,8.1
2023-03-26T08:18:15.168Z,8.2
2023-03-26T08:19:15.561Z,8.3
2023-03-26T08:20:14.840Z,8.3
2023-03-26T08:21:14.786Z,8.4
2023-03-26T08:22:14.798Z,8.4
2023-03-26T08:23:14.847Z,8.5
2023-03-26T08:24:14.822Z,8.6
2023-03-26T08:25:14.757Z,8.6
2023-03-26T08:26:14.769Z,8.7
2023-03-26T08:27:14.777Z,8.7
2023-03-26T08:28:14.808Z,8.8
2023-03-26T08:29:14.764Z,8.8
2023-03-26T08:30:14.863Z,8.8
2023-03-26T08:31:14.990Z,8.9
2023-03-26T08:32:14.792Z,8.9
2023-03-26T08:33:14.723Z,8.9
2023-03-26T08:34:14.819Z,8.9
2023-03-26T08:35:14.755Z,8.9
2023-03-26T08:36:14.746Z,9.0
2023-03-26T08:37:14.741Z,9.0
2023-03-26T08:38:14.724Z,9.0
2023-03-26T08:39:14.836Z,9.1
2023-03-26T08:40:14.835Z,9.1
2023-03-26T08:41:14.786Z,9.1
2023-03-26T08:42:14.903Z,9.1
2023-03-26T08:43:14.732Z,9.2
2023-03-26T08:44:14.881Z,9.2
2023-03-26T08:45:14.738Z,9.2
2023-03-26T08:46:14.795Z,9.2
2023-03-26T08:47:14.761Z,9.2
2023-03-26T08:48:14.725Z,9.3
2023-03-26T08:49:14.737Z,9.3
2023-03-26T08:50:14.748Z,9.3
2023-03-26T08:51:14.774Z,9.3
2023-03-26T08:52:14.708Z,9.4
2023-03-26T08:53:14.881Z,9.4
2023-03-26T08:54:14.750Z,9.4
2023-03-26T08:55:14.742Z,9.5
2023-03-26T08:56:14.759Z,9.5
2023-03-26T08:57:14.787Z,9.5
2023-03-26T08:58:14.781Z,9.6
2023-03-26T08:59:14.727Z,9.6
2023-03-26T09:00:14.690Z,9.6
2023-03-26T09:01:14.726Z,9.7
2023-03-26T09:02:14.776Z,9.7
2023-03-26T09:03:14.772Z,9.7
2023-03-26T09:04:14.724Z,9.7
2023-03-26T09:05:14.713Z,9.8
2023-03-26T09:06:14.718Z,9.8
2023-03-26T09:07:14.751Z,9.8
2023-03-26T09:08:14.777Z,9.8
2023-03-26T09:09:19.326Z,9.8
2023-03-26T09:10:14.714Z,9.8
2023-03-26T09:11:14.732Z,9.8
2023-03-26T09:12:14.728Z,9.8
2023-03-26T09:13:14.730Z,9.8
2023-03-26T09:14:14.743Z,9.8
2023-03-26T09:15:14.793Z,9.8
2023-03-26T09:16:14.745Z,9.8
2023-03-26T09:17:14.857Z,9.8
2023-03-26T09:18:14.689Z,9.7
2023-03-26T09:19:14.703Z,9.7
2023-03-26T09:20:14.781Z,9.7
2023-03-26T09:21:14.702Z,9.7
2023-03-26T09:22:14.691Z,9.7
2023-03-26T09:23:15.190Z,9.7
2023-03-26T09:24:14.751Z,9.7
2023-03-26T09:25:14.727Z,9.6
2023-03-26T09:26:14.652Z,9.6
2023-03-26T09:27:14.682Z,9.6
2023-03-26T09:28:14.723Z,9.6
2023-03-26T09:29:14.763Z,9.6
2023-03-26T09:30:14.745Z,9.6
2023-03-26T09:31:14.687Z,9.6
2023-03-26T09:32:14.675Z,9.6
2023-03-26T09:33:14.672Z,9.6
2023-03-26T09:34:14.676Z,9.6
2023-03-26T09:35:14.714Z,9.6
2023-03-26T09:36:16.156Z,9.6
2023-03-26T09:37:14.836Z,9.6
2023-03-26T09:38:14.668Z,9.6
2023-03-26T09:39:14.677Z,9.7
2023-03-26T09:40:14.722Z,9.7
2023-03-26T09:41:14.625Z,9.7
2023-03-26T09:42:14.649Z,9.7
2023-03-26T09:43:14.635Z,9.7
2023-03-26T09:44:15.445Z,9.8
2023-03-26T09:45:14.749Z,9.8
2023-03-26T09:46:14.703Z,9.9
2023-03-26T09:47:14.658Z,9.9
2023-03-26T09:48:14.664Z,10.0
2023-03-26T09:49:14.643Z,10.0
2023-03-26T09:50:14.661Z,10.0
2023-03-26T09:51:14.673Z,10.0
2023-03-26T09:53:14.609Z,10.0
2023-03-26T09:54:14.608Z,9.9
2023-03-26T09:55:14.675Z,9.9
2023-03-26T09:56:15.441Z,9.9
2023-03-26T09:57:15.405Z,9.9
2023-03-26T09:58:15.390Z,9.9
2023-03-26T09:59:14.601Z,9.9
2023-03-26T10:00:14.641Z,9.9
2023-03-26T10:01:14.714Z,9.9
2023-03-26T10:02:14.647Z,9.8
2023-03-26T10:03:14.637Z,9.8
2023-03-26T10:04:14.629Z,9.8
2023-03-26T10:05:15.035Z,9.8
2023-03-26T10:06:14.727Z,9.8
2023-03-26T10:07:14.643Z,9.8
2023-03-26T10:08:14.599Z,9.8
2023-03-26T10:09:14.904Z,9.7
2023-03-26T10:10:14.603Z,9.7
2023-03-26T10:11:14.627Z,9.7
2023-03-26T10:12:14.583Z,9.7
2023-03-26T10:13:15.248Z,9.7
2023-03-26T10:14:14.595Z,9.6
2023-03-26T10:15:14.636Z,9.6
2023-03-26T10:16:14.610Z,9.7
2023-03-26T10:17:14.610Z,9.6
2023-03-26T10:18:27.069Z,9.6
2023-03-26T10:19:14.587Z,9.5
2023-03-26T10:20:14.739Z,9.5
2023-03-26T10:21:14.580Z,9.5
2023-03-26T10:22:14.567Z,9.4
2023-03-26T10:23:14.579Z,9.4
2023-03-26T10:24:14.586Z,9.4
2023-03-26T10:25:14.666Z,9.3
2023-03-26T10:26:14.565Z,9.3
2023-03-26T10:27:16.080Z,9.2
2023-03-26T10:28:18.877Z,9.1
2023-03-26T10:29:14.592Z,8.9
2023-03-26T10:30:14.638Z,8.8
2023-03-26T10:31:14.767Z,8.7
2023-03-26T10:32:14.581Z,8.6
2023-03-26T10:33:14.617Z,8.6
2023-03-26T10:34:28.426Z,8.5
2023-03-26T10:35:14.634Z,8.5
2023-03-26T10:36:14.546Z,8.4
2023-03-26T10:37:14.610Z,8.4
2023-03-26T10:38:14.546Z,8.3
2023-03-26T10:39:36.810Z,8.3
2023-03-26T10:40:14.605Z,8.3
2023-03-26T10:41:14.551Z,8.3
2023-03-26T10:42:14.654Z,8.3
2023-03-26T10:43:14.536Z,8.3
2023-03-26T10:44:14.615Z,8.3
2023-03-26T10:45:14.595Z,8.4
2023-03-26T10:46:14.606Z,8.4
2023-03-26T10:47:14.540Z,8.4
2023-03-26T10:48:14.513Z,8.4
2023-03-26T10:49:14.652Z,8.5
2023-03-26T10:50:16.070Z,8.5
2023-03-26T10:51:14.571Z,8.5
2023-03-26T10:52:14.534Z,8.5
2023-03-26T10:53:14.790Z,8.6
2023-03-26T10:54:14.586Z,8.7
2023-03-26T10:55:14.512Z,8.8
2023-03-26T10:56:14.525Z,8.9
2023-03-26T10:57:14.627Z,9.0
2023-03-26T10:58:14.506Z,9.1
2023-03-26T10:59:14.582Z,9.3
2023-03-26T11:00:14.591Z,9.4
2023-03-26T11:01:14.534Z,9.5
2023-03-26T11:02:14.559Z,9.5
2023-03-26T11:03:14.571Z,9.5
2023-03-26T11:04:14.682Z,9.6
2023-03-26T11:05:14.591Z,9.6
2023-03-26T11:06:14.527Z,9.6
2023-03-26T11:07:14.582Z,9.7
2023-03-26T11:08:14.565Z,9.7
2023-03-26T11:09:14.605Z,9.8
2023-03-26T11:10:14.481Z,9.8
2023-03-26T11:11:14.532Z,9.9
2023-03-26T11:12:25.679Z,10.0
2023-03-26T11:13:14.537Z,10.1
2023-03-26T11:14:24.322Z,10.3
2023-03-26T11:15:14.626Z,10.4
2023-03-26T11:16:14.619Z,10.5
2023-03-26T11:17:39.461Z,10.6
2023-03-26T11:18:14.500Z,10.6
2023-03-26T11:19:14.662Z,10.6
2023-03-26T11:20:14.470Z,10.6
2023-03-26T11:21:19.249Z,10.6
2023-03-26T11:22:14.477Z,10.7
2023-03-26T11:23:14.532Z,10.7
2023-03-26T11:24:14.488Z,10.8
2023-03-26T11:25:14.602Z,10.8
2023-03-26T11:26:14.715Z,10.8
2023-03-26T11:27:16.883Z,10.9
2023-03-26T11:28:14.527Z,10.9
2023-03-26T11:29:32.172Z,10.9
2023-03-26T11:30:14.571Z,11.0
2023-03-26T11:31:14.499Z,11.1
2023-03-26T11:32:14.475Z,11.2
2023-03-26T11:33:14.545Z,11.3
2023-03-26T11:34:14.479Z,11.3
2023-03-26T11:35:14.517Z,11.3
2023-03-26T11:36:14.539Z,11.3
2023-03-26T11:37:14.579Z,11.3
2023-03-26T11:38:14.522Z,11.3
2023-03-26T11:39:14.493Z,11.2
2023-03-26T11:40:14.572Z,11.2
2023-03-26T11:41:14.455Z,11.2
2023-03-26T11:42:14.544Z,11.2
2023-03-26T11:43:14.464Z,11.2
2023-03-26T11:44:14.549Z,11.3
2023-03-26T11:45:14.464Z,11.3
2023-03-26T11:46:14.469Z,11.2
2023-03-26T11:47:14.487Z,11.2
2023-03-26T11:48:14.469Z,11.1
2023-03-26T11:49:37.360Z,11.1
2023-03-26T11:50:14.462Z,11.1
2023-03-26T11:52:14.487Z,11.1
2023-03-26T11:53:14.430Z,11.1
2023-03-26T11:55:14.513Z,11.1
2023-03-26T11:56:15.730Z,11.1
2023-03-26T11:57:14.525Z,11.0
2023-03-26T11:58:14.486Z,11.0
2023-03-26T11:59:14.453Z,11.0
2023-03-26T12:00:14.712Z,11.0
2023-03-26T12:01:14.453Z,11.1
2023-03-26T12:02:14.552Z,11.1
2023-03-26T12:03:14.547Z,11.1
2023-03-26T12:04:14.471Z,11.1
2023-03-26T12:05:15.527Z,11.1
2023-03-26T12:06:14.543Z,11.1
2023-03-26T12:07:14.564Z,11.1
2023-03-26T12:08:14.503Z,11.1
2023-03-26T12:09:14.397Z,11.1
2023-03-26T12:10:17.722Z,11.1
2023-03-26T12:11:14.537Z,11.1
2023-03-26T12:12:14.384Z,11.1
2023-03-26T12:13:14.463Z,11.1
2023-03-26T12:14:14.434Z,11.1
2023-03-26T12:15:14.437Z,11.1
2023-03-26T12:16:14.573Z,11.1
2023-03-26T12:17:14.369Z,11.1
2023-03-26T12:18:14.401Z,11.1
2023-03-26T12:19:14.385Z,11.1
2023-03-26T12:20:14.401Z,11.1
2023-03-26T12:21:14.371Z,11.1
2023-03-26T12:22:14.620Z,11.1
2023-03-26T12:23:14.408Z,11.1
2023-03-26T12:24:14.413Z,11.2
2023-03-26T12:25:14.347Z,11.2
2023-03-26T12:26:14.392Z,11.3
2023-03-26T12:27:14.433Z,11.4
2023-03-26T12:28:14.473Z,11.4
2023-03-26T12:29:14.392Z,11.5
2023-03-26T12:30:14.394Z,11.5
2023-03-26T12:31:14.429Z,11.5
2023-03-26T12:32:14.422Z,11.6
2023-03-26T12:33:14.563Z,11.6
2023-03-26T12:34:14.417Z,11.6
2023-03-26T12:35:14.355Z,11.6
2023-03-26T12:36:14.419Z,11.7
2023-03-26T12:37:14.416Z,11.8
2023-03-26T12:38:14.360Z,11.8
2023-03-26T12:39:42.702Z,11.9
2023-03-26T12:40:18.292Z,11.9
2023-03-26T12:43:51.591Z,12.0
2023-03-26T12:44:44.853Z,12.0
2023-03-26T12:44:46.409Z,12.1
2023-03-26T12:44:50.407Z,12.1
2023-03-26T12:45:14.457Z,12.1
2023-03-26T12:47:57.876Z,12.1
2023-03-26T12:47:58.375Z,12.2
2023-03-26T12:48:14.714Z,12.1
2023-03-26T12:49:14.591Z,12.1
2023-03-26T12:50:14.717Z,12.1
2023-03-26T12:51:14.602Z,12.1
2023-03-26T12:52:14.653Z,12.1
2023-03-26T12:53:14.779Z,12.0
2023-03-26T12:54:14.395Z,12.0
2023-03-26T12:55:14.306Z,12.1
2023-03-26T12:56:14.360Z,12.1
2023-03-26T12:57:14.400Z,12.1
2023-03-26T12:58:14.514Z,12.1
2023-03-26T12:59:14.349Z,12.1
2023-03-26T13:00:16.535Z,12.1
2023-03-26T13:01:14.360Z,12.1
2023-03-26T13:02:14.389Z,12.1
2023-03-26T13:03:14.512Z,12.1
2023-03-26T13:04:14.340Z,12.2
2023-03-26T13:05:14.516Z,12.3
2023-03-26T13:06:16.919Z,12.3
2023-03-26T13:07:14.287Z,12.3
2023-03-26T13:08:14.342Z,12.3
2023-03-26T13:09:14.414Z,12.3
2023-03-26T13:10:14.727Z,12.3
2023-03-26T13:11:14.350Z,12.2
2023-03-26T13:12:14.342Z,12.2
2023-03-26T13:13:14.329Z,12.1
2023-03-26T13:14:14.348Z,12.1
2023-03-26T13:15:14.351Z,12.1
2023-03-26T13:16:14.391Z,12.1
2023-03-26T13:17:14.312Z,12.1
2023-03-26T13:18:14.402Z,12.2
2023-03-26T13:19:14.397Z,12.2
2023-03-26T13:20:15.509Z,12.2
2023-03-26T13:21:14.356Z,12.2
2023-03-26T13:22:14.301Z,12.1
2023-03-26T13:23:14.317Z,12.1
2023-03-26T13:24:14.511Z,12.1
2023-03-26T13:25:16.544Z,12.1
2023-03-26T13:26:14.315Z,12.1
2023-03-26T13:27:14.425Z,12.1
2023-03-26T13:28:14.317Z,12.1
2023-03-26T13:29:14.285Z,12.1
2023-03-26T13:30:14.353Z,12.1
2023-03-26T13:31:14.334Z,12.1
2023-03-26T13:32:14.352Z,12.1
2023-03-26T13:33:15.353Z,12.1
2023-03-26T13:34:14.275Z,12.1
2023-03-26T13:35:14.393Z,12.1
2023-03-26T13:36:22.529Z,12.1
2023-03-26T13:37:14.340Z,12.0
2023-03-26T13:38:14.485Z,12.0
2023-03-26T13:39:15.663Z,12.0
2023-03-26T13:40:14.441Z,12.0
2023-03-26T13:41:14.245Z,12.0
2023-03-26T13:42:14.242Z,12.0
2023-03-26T13:43:14.288Z,12.0
2023-03-26T13:44:14.273Z,12.0
2023-03-26T13:45:14.307Z,12.0
2023-03-26T13:46:14.306Z,12.0
2023-03-26T13:47:14.283Z,12.1
2023-03-26T13:48:14.245Z,12.1